Time;durP1;ratioP1;P1;durP2;ratioP2;P2;SDS_P1;SDS_P2;PMS_P1;PMS_P2;Temp;Humidity;BMP_temperature;BMP_pressure;BME280_temperature;BME280_humidity;BME280_pressure;Samples;Min_cycle;Max_cycle;Signal;HPM_P1;HPM_P2
2024/03/03 00:02:04;;;;;;;;;;;;;;;6.11;49.02;93971.50;4958115;28;19949;-62
2024/03/03 00:04:29;;;;;;;;;;;;;;;6.23;48.61;93975.25;4957068;28;19968;-62
2024/03/03 00:06:55;;;;;;;;;;;;;;;6.06;49.32;93968.63;4957695;28;19925;-62
2024/03/03 00:09:20;;;;;;;;;;;;;;;6.08;49.34;93962.13;4957282;28;20017;-62
2024/03/03 00:11:46;;;;;;;;;;;;;;;5.96;50.87;93971.56;4957014;28;19926;-62
2024/03/03 00:14:11;;;;;;;;;;;;;;;5.92;50.11;93983.53;4958236;28;19918;-61
2024/03/03 00:16:41;;;;;;;;;;;;;;;5.97;50.29;93976.69;4957775;28;19926;-62
2024/03/03 00:19:06;;;;;;;;;;;;;;;5.98;50.10;93972.19;4954667;28;19973;-62
2024/03/03 00:21:31;;;;;;;;;;;;;;;5.93;50.40;93983.34;4956533;28;19937;-62
2024/03/03 00:23:56;;;;;;;;;;;;;;;5.77;50.78;93979.13;4954871;28;20743;-62
2024/03/03 00:26:22;;;;;;;;;;;;;;;5.88;50.43;93982.28;4949270;28;19922;-62
2024/03/03 00:28:47;;;;;;;;;;;;;;;5.76;50.75;93985.41;4956675;28;19934;-62
2024/03/03 00:31:15;;;;;;;;;;;;;;;5.70;51.06;93979.06;4956827;28;19926;-62
2024/03/03 00:33:42;;;;;;;;;;;;;;;5.52;51.75;93982.13;4956804;28;19960;-62
2024/03/03 00:36:08;;;;;;;;;;;;;;;5.63;51.17;93964.13;4956077;28;20466;-62
2024/03/03 00:38:34;;;;;;;;;;;;;;;5.43;51.63;93957.66;4957394;28;19925;-62
2024/03/03 00:41:00;;;;;;;;;;;;;;;5.36;51.83;93962.03;4956944;28;20486;-61
2024/03/03 00:43:25;;;;;;;;;;;;;;;5.50;51.52;93957.72;4957776;28;19930;-62
2024/03/03 00:45:50;;;;;;;;;;;;;;;5.32;52.58;93963.41;4957252;28;20661;-62
2024/03/03 00:48:15;;;;;;;;;;;;;;;5.32;52.05;93955.50;4955708;28;19985;-61
2024/03/03 00:50:41;;;;;;;;;;;;;;;5.32;52.21;93939.66;4956964;28;19934;-62
2024/03/03 00:53:07;;;;;;;;;;;;;;;5.20;52.47;93934.88;4957199;28;19929;-62
2024/03/03 00:55:33;;;;;;;;;;;;;;;5.21;52.99;93919.88;4956882;28;19922;-62
2024/03/03 00:57:58;;;;;;;;;;;;;;;5.25;52.89;93917.66;4967371;28;19977;-62
2024/03/03 01:00:23;;;;;;;;;;;;;;;5.55;51.88;93923.66;4950939;28;20029;-63
2024/03/03 01:02:49;;;;;;;;;;;;;;;5.55;51.92;93928.13;4953568;28;19968;-63
2024/03/03 01:05:14;;;;;;;;;;;;;;;5.51;51.93;93925.03;4944566;28;20013;-63
2024/03/03 01:07:39;;;;;;;;;;;;;;;5.44;52.04;93924.97;4955165;28;20017;-62
2024/03/03 01:10:05;;;;;;;;;;;;;;;5.38;52.38;93914.34;4955924;28;20008;-63
2024/03/03 01:12:30;;;;;;;;;;;;;;;5.46;52.00;93901.03;4957717;28;20565;-63
2024/03/03 01:14:56;;;;;;;;;;;;;;;5.51;51.91;93909.19;4952810;28;20619;-63
2024/03/03 01:17:21;;;;;;;;;;;;;;;5.43;52.27;93904.88;4954227;28;19922;-63
2024/03/03 01:19:46;;;;;;;;;;;;;;;5.45;51.71;93900.19;4957931;28;19926;-62
2024/03/03 01:22:12;;;;;;;;;;;;;;;5.38;51.94;93901.16;4955096;28;20068;-63
2024/03/03 01:24:37;;;;;;;;;;;;;;;5.38;51.90;93904.63;4957843;28;19973;-63
2024/03/03 01:27:02;;;;;;;;;;;;;;;5.44;51.60;93903.84;4957833;28;20000;-62
2024/03/03 01:29:28;;;;;;;;;;;;;;;5.28;51.84;93904.94;4956008;28;20027;-63
2024/03/03 01:31:53;;;;;;;;;;;;;;;5.20;51.98;93908.47;4957526;28;19933;-63
2024/03/03 01:34:18;;;;;;;;;;;;;;;5.24;52.17;93921.31;4958563;28;20399;-63
2024/03/03 01:36:43;;;;;;;;;;;;;;;5.40;51.98;93923.72;4957342;28;20492;-63
2024/03/03 01:39:09;;;;;;;;;;;;;;;5.06;52.88;93920.72;4958173;28;19952;-63
2024/03/03 01:41:35;;;;;;;;;;;;;;;5.03;53.08;93910.50;4956875;28;19984;-62
2024/03/03 01:44:00;;;;;;;;;;;;;;;5.21;52.85;93910.09;4958140;28;20152;-63
2024/03/03 01:46:25;;;;;;;;;;;;;;;5.38;52.47;93915.19;4957863;28;19965;-63
2024/03/03 01:48:50;;;;;;;;;;;;;;;5.18;52.82;93921.06;4972847;28;20597;-63
2024/03/03 01:51:15;;;;;;;;;;;;;;;5.42;52.52;93918.25;4957447;28;19926;-63
2024/03/03 01:53:41;;;;;;;;;;;;;;;5.44;52.27;93919.69;4969033;28;19958;-62
2024/03/03 01:56:06;;;;;;;;;;;;;;;5.45;52.30;93916.03;4955210;28;19957;-62
2024/03/03 01:58:32;;;;;;;;;;;;;;;5.54;52.41;93915.94;4957831;28;19922;-63
2024/03/03 02:00:57;;;;;;;;;;;;;;;5.71;51.78;93912.03;4971690;28;19969;-63
2024/03/03 02:03:22;;;;;;;;;;;;;;;5.76;51.11;93916.75;4956247;28;19926;-63
2024/03/03 02:05:47;;;;;;;;;;;;;;;5.74;51.32;93916.09;4972082;28;20024;-62
2024/03/03 02:08:13;;;;;;;;;;;;;;;5.96;50.58;93913.47;4957426;28;20016;-63
2024/03/03 02:10:38;;;;;;;;;;;;;;;5.96;50.99;93924.03;4972048;28;20092;-63
2024/03/03 02:13:04;;;;;;;;;;;;;;;5.93;51.44;93927.03;4956961;28;20561;-63
2024/03/03 02:15:29;;;;;;;;;;;;;;;6.10;50.95;93927.59;4958558;28;20433;-63
2024/03/03 02:17:54;;;;;;;;;;;;;;;6.06;50.85;93921.84;4974390;28;19922;-63
2024/03/03 02:20:20;;;;;;;;;;;;;;;6.05;50.88;93922.06;4970801;28;19926;-62
2024/03/03 02:22:45;;;;;;;;;;;;;;;6.28;50.10;93913.91;4955531;28;19922;-63
2024/03/03 02:25:10;;;;;;;;;;;;;;;6.33;49.84;93911.47;4956435;28;19986;-63
2024/03/03 02:27:35;;;;;;;;;;;;;;;6.36;49.65;93905.81;4957558;28;19929;-63
2024/03/03 02:30:01;;;;;;;;;;;;;;;6.13;50.37;93906.06;4956029;28;19922;-63
2024/03/03 02:32:26;;;;;;;;;;;;;;;6.31;49.96;93905.59;4957119;28;19933;-63
2024/03/03 02:34:52;;;;;;;;;;;;;;;6.26;50.19;93894.78;4957533;28;19926;-63
2024/03/03 02:37:17;;;;;;;;;;;;;;;6.39;49.60;93888.75;4957485;28;19957;-63
2024/03/03 02:39:42;;;;;;;;;;;;;;;6.47;49.72;93885.94;4957133;28;19973;-63
2024/03/03 02:42:07;;;;;;;;;;;;;;;6.40;49.93;93889.56;4957211;28;20319;-63
2024/03/03 02:44:33;;;;;;;;;;;;;;;6.42;49.48;93883.06;4956035;28;19929;-63
2024/03/03 02:46:58;;;;;;;;;;;;;;;6.39;49.53;93891.38;4956836;28;19926;-63
2024/03/03 02:49:24;;;;;;;;;;;;;;;6.44;49.58;93896.09;4957085;28;20384;-62
2024/03/03 02:51:49;;;;;;;;;;;;;;;6.49;49.54;93899.81;4956908;28;19952;-63
2024/03/03 02:54:14;;;;;;;;;;;;;;;6.50;49.61;93896.16;4957602;28;20161;-63
2024/03/03 02:56:40;;;;;;;;;;;;;;;6.17;50.28;93880.91;4956760;28;19933;-63
2024/03/03 02:59:05;;;;;;;;;;;;;;;6.11;50.72;93869.28;4957008;28;19926;-63
2024/03/03 03:01:30;;;;;;;;;;;;;;;6.05;50.85;93863.94;4956940;28;19930;-63
2024/03/03 03:03:55;;;;;;;;;;;;;;;5.99;50.87;93849.69;4957301;28;19923;-63
2024/03/03 03:06:21;;;;;;;;;;;;;;;6.33;49.69;93857.81;4957023;28;20693;-63
2024/03/03 03:08:46;;;;;;;;;;;;;;;5.45;51.90;93902.03;4956894;28;20012;-63
2024/03/03 03:11:12;;;;;;;;;;;;;;;5.09;52.38;93925.63;4957119;28;20048;-63
2024/03/03 03:13:38;;;;;;;;;;;;;;;4.55;55.23;93922.28;4956748;28;19926;-62
2024/03/03 03:16:06;;;;;;;;;;;;;;;4.94;54.05;93911.59;4950486;28;19926;-63
2024/03/03 03:18:31;;;;;;;;;;;;;;;4.74;53.70;93929.81;4956705;28;19930;-62
2024/03/03 03:20:57;;;;;;;;;;;;;;;5.12;52.99;93942.06;4956560;28;20768;-63
2024/03/03 03:23:23;;;;;;;;;;;;;;;5.07;54.29;93938.16;4949039;28;19970;-63
2024/03/03 03:25:48;;;;;;;;;;;;;;;5.35;53.85;93926.91;4955543;28;19929;-62
2024/03/03 03:28:14;;;;;;;;;;;;;;;5.52;53.23;93931.13;4952207;28;19922;-63
2024/03/03 03:30:39;;;;;;;;;;;;;;;5.59;52.54;93927.56;4957015;28;19926;-63
2024/03/03 03:33:04;;;;;;;;;;;;;;;5.73;52.30;93935.59;4956705;28;19926;-63
2024/03/03 03:35:30;;;;;;;;;;;;;;;5.77;51.68;93944.78;4957014;28;20598;-63
2024/03/03 03:37:55;;;;;;;;;;;;;;;5.67;51.96;93925.78;4956558;28;19953;-63
2024/03/03 03:40:21;;;;;;;;;;;;;;;5.69;51.03;93918.50;4956458;28;20769;-63
2024/03/03 03:42:46;;;;;;;;;;;;;;;5.09;52.21;93943.25;4956632;28;19926;-63
2024/03/03 03:45:13;;;;;;;;;;;;;;;5.30;52.91;93928.47;4956629;28;19933;-63
2024/03/03 03:47:40;;;;;;;;;;;;;;;5.52;52.99;93936.41;4956473;28;19965;-63
2024/03/03 03:50:05;;;;;;;;;;;;;;;5.51;51.72;93951.44;4956830;28;19968;-63
2024/03/03 03:52:31;;;;;;;;;;;;;;;5.43;51.43;93959.47;4970966;28;20016;-63
2024/03/03 03:54:56;;;;;;;;;;;;;;;5.60;50.62;93957.41;4971883;28;19977;-63
2024/03/03 03:57:21;;;;;;;;;;;;;;;5.37;52.33;93963.66;4955932;28;19926;-62
2024/03/03 03:59:46;;;;;;;;;;;;;;;5.35;52.79;93963.03;4958563;28;19930;-62
2024/03/03 04:02:12;;;;;;;;;;;;;;;5.43;53.66;93946.28;4957732;28;19929;-63
2024/03/03 04:04:37;;;;;;;;;;;;;;;5.53;53.24;93953.88;4959736;28;20446;-63
2024/03/03 04:07:04;;;;;;;;;;;;;;;5.34;52.06;93962.22;4959888;28;20388;-62
2024/03/03 04:09:30;;;;;;;;;;;;;;;5.39;53.36;93953.75;4959808;28;19937;-62
2024/03/03 04:11:56;;;;;;;;;;;;;;;5.42;53.52;93950.75;4959449;28;19918;-63
2024/03/03 04:14:22;;;;;;;;;;;;;;;5.49;53.39;93953.44;4959834;28;20025;-63
2024/03/03 04:16:47;;;;;;;;;;;;;;;5.48;52.49;93959.75;4959119;28;19930;-63
2024/03/03 04:19:12;;;;;;;;;;;;;;;5.47;52.94;93958.91;4960036;28;19972;-62
2024/03/03 04:21:43;;;;;;;;;;;;;;;5.41;53.71;93949.09;4959290;28;19969;-63
2024/03/03 04:24:10;;;;;;;;;;;;;;;5.44;51.77;93956.63;4957770;28;19926;-63
2024/03/03 04:26:35;;;;;;;;;;;;;;;5.40;51.31;93957.19;4959850;28;20251;-63
2024/03/03 04:29:00;;;;;;;;;;;;;;;5.40;53.42;93960.66;4954605;28;20028;-63
2024/03/03 04:31:26;;;;;;;;;;;;;;;5.47;53.14;93966.00;4959732;28;19986;-63
2024/03/03 04:33:51;;;;;;;;;;;;;;;5.54;52.85;93974.03;4959615;28;19968;-63
2024/03/03 04:36:16;;;;;;;;;;;;;;;5.59;53.19;93966.34;4959157;28;19926;-63
2024/03/03 04:38:42;;;;;;;;;;;;;;;5.56;53.49;93966.72;4959831;28;19968;-63
2024/03/03 04:41:17;;;;;;;;;;;;;;;5.53;53.42;93960.00;4958989;28;19926;-63
2024/03/03 04:43:42;;;;;;;;;;;;;;;5.60;51.25;93954.78;4957761;28;19933;-63
2024/03/03 04:46:08;;;;;;;;;;;;;;;5.60;52.85;93952.13;4959079;28;19921;-63
2024/03/03 04:48:34;;;;;;;;;;;;;;;5.60;53.54;93945.03;4958780;28;20375;-63
2024/03/03 04:50:59;;;;;;;;;;;;;;;5.61;53.04;93924.72;4959376;28;19934;-63
2024/03/03 04:53:24;;;;;;;;;;;;;;;5.61;53.32;93919.44;4958995;28;19933;-63
2024/03/03 04:55:50;;;;;;;;;;;;;;;5.65;53.42;93919.91;4958385;28;20013;-63
2024/03/03 04:58:15;;;;;;;;;;;;;;;5.65;53.00;93910.16;4959003;28;19972;-63
2024/03/03 05:00:40;;;;;;;;;;;;;;;5.60;52.36;93918.63;4957769;28;20060;-63
2024/03/03 05:03:05;;;;;;;;;;;;;;;5.64;52.91;93916.44;4959270;28;20562;-63
2024/03/03 05:05:30;;;;;;;;;;;;;;;5.66;53.09;93906.50;4958967;28;19983;-63
2024/03/03 05:07:56;;;;;;;;;;;;;;;5.66;52.46;93914.44;4959265;28;19980;-63
2024/03/03 05:10:21;;;;;;;;;;;;;;;5.64;53.13;93927.00;4958545;28;19926;-63
2024/03/03 05:12:46;;;;;;;;;;;;;;;5.60;52.93;93937.13;4958409;28;19929;-63
2024/03/03 05:15:12;;;;;;;;;;;;;;;5.59;53.35;93932.03;4959120;28;20035;-63
2024/03/03 05:17:37;;;;;;;;;;;;;;;5.44;53.16;93919.69;4957888;28;19965;-63
2024/03/03 05:20:02;;;;;;;;;;;;;;;5.49;53.71;93921.78;4954498;28;20236;-63
2024/03/03 05:22:28;;;;;;;;;;;;;;;5.44;53.37;93917.06;4958381;28;20032;-63
2024/03/03 05:24:53;;;;;;;;;;;;;;;5.42;53.78;93915.59;4958379;28;19929;-63
2024/03/03 05:27:18;;;;;;;;;;;;;;;5.43;53.67;93910.16;4958602;28;20474;-63
2024/03/03 05:29:43;;;;;;;;;;;;;;;5.43;53.37;93902.22;4958067;28;20029;-63
2024/03/03 05:32:09;;;;;;;;;;;;;;;5.52;53.27;93916.13;4958152;28;19959;-63
2024/03/03 05:34:35;;;;;;;;;;;;;;;5.53;53.42;93923.03;4959405;28;19954;-63
2024/03/03 05:37:00;;;;;;;;;;;;;;;5.53;53.73;93920.38;4958473;28;20368;-63
2024/03/03 05:39:26;;;;;;;;;;;;;;;5.54;53.80;93923.84;4958230;28;20675;-63
2024/03/03 05:41:51;;;;;;;;;;;;;;;5.60;53.51;93926.56;4957644;28;19980;-63
2024/03/03 05:44:16;;;;;;;;;;;;;;;5.59;53.48;93927.56;4958371;28;19926;-63
2024/03/03 05:46:41;;;;;;;;;;;;;;;5.69;53.30;93931.72;4957008;28;20117;-63
2024/03/03 05:49:07;;;;;;;;;;;;;;;5.68;53.74;93932.72;4958029;28;19941;-63
2024/03/03 05:51:32;;;;;;;;;;;;;;;5.68;53.58;93928.25;4957890;28;20568;-62
2024/03/03 05:53:57;;;;;;;;;;;;;;;5.59;53.22;93926.75;4958180;28;19926;-62
2024/03/03 05:56:23;;;;;;;;;;;;;;;5.59;53.15;93921.47;4957215;28;19994;-63
2024/03/03 05:58:48;;;;;;;;;;;;;;;5.63;53.28;93928.00;4958098;28;19922;-63
2024/03/03 06:01:13;;;;;;;;;;;;;;;5.65;53.28;93925.16;4957358;28;20659;-62
2024/03/03 06:03:39;;;;;;;;;;;;;;;5.64;53.29;93923.56;4958365;28;19964;-63
2024/03/03 06:06:08;;;;;;;;;;;;;;;5.64;53.25;93926.19;4957602;28;20004;-63
2024/03/03 06:08:34;;;;;;;;;;;;;;;5.60;53.08;93925.72;4957804;28;19956;-63
2024/03/03 06:10:59;;;;;;;;;;;;;;;5.60;52.98;93926.56;4957540;28;19957;-63
2024/03/03 06:13:25;;;;;;;;;;;;;;;5.60;52.92;93920.44;4957177;28;20459;-63
2024/03/03 06:15:50;;;;;;;;;;;;;;;5.57;53.01;93931.38;4953422;28;19992;-63
2024/03/03 06:18:15;;;;;;;;;;;;;;;5.47;53.00;93927.25;4954784;28;19926;-62
2024/03/03 06:20:41;;;;;;;;;;;;;;;5.44;53.12;93919.69;4955806;28;20685;-63
2024/03/03 06:23:06;;;;;;;;;;;;;;;5.39;53.14;93923.91;4971066;28;19918;-63
2024/03/03 06:25:31;;;;;;;;;;;;;;;5.39;52.65;93916.81;4955682;28;20507;-62
2024/03/03 06:27:57;;;;;;;;;;;;;;;5.41;52.20;93916.63;4953956;28;19926;-63
2024/03/03 06:30:22;;;;;;;;;;;;;;;5.34;53.55;93908.63;4955116;28;20025;-63
2024/03/03 06:32:47;;;;;;;;;;;;;;;5.36;53.48;93906.63;4957152;28;19926;-62
2024/03/03 06:35:13;;;;;;;;;;;;;;;5.39;53.24;93908.88;4957899;28;20113;-63
2024/03/03 06:37:38;;;;;;;;;;;;;;;5.42;53.39;93900.59;4957700;28;20013;-63
2024/03/03 06:40:04;;;;;;;;;;;;;;;5.37;52.92;93902.16;4957492;28;19930;-63
2024/03/03 06:42:29;;;;;;;;;;;;;;;5.27;53.00;93908.53;4956994;28;19930;-62
2024/03/03 06:44:55;;;;;;;;;;;;;;;5.33;53.36;93902.53;4957322;28;19930;-63
2024/03/03 06:47:20;;;;;;;;;;;;;;;5.36;53.22;93898.69;4957546;28;19976;-63
2024/03/03 06:49:45;;;;;;;;;;;;;;;5.49;51.50;93905.94;4956837;28;19930;-63
2024/03/03 06:52:10;;;;;;;;;;;;;;;5.27;51.75;93905.13;4957182;28;20591;-63
2024/03/03 06:54:35;;;;;;;;;;;;;;;4.93;52.29;93912.63;4957192;28;20463;-63
2024/03/03 06:57:01;;;;;;;;;;;;;;;4.58;54.45;93914.00;4957177;28;20577;-63
2024/03/03 06:59:27;;;;;;;;;;;;;;;4.39;54.45;93914.56;4957453;28;19981;-63
2024/03/03 07:01:52;;;;;;;;;;;;;;;4.33;55.26;93910.81;4956128;28;19926;-62
2024/03/03 07:04:23;;;;;;;;;;;;;;;4.75;54.46;93912.97;4956902;28;19962;-63
2024/03/03 07:06:49;;;;;;;;;;;;;;;5.39;53.84;93905.41;4957532;28;19929;-62
2024/03/03 07:09:14;;;;;;;;;;;;;;;5.71;52.35;93906.75;4956763;28;20486;-62
2024/03/03 07:11:40;;;;;;;;;;;;;;;5.79;52.50;93902.34;4956395;28;19969;-63
2024/03/03 07:14:05;;;;;;;;;;;;;;;6.06;51.46;93900.72;4957382;28;19964;-63
2024/03/03 07:16:30;;;;;;;;;;;;;;;6.21;51.07;93900.63;4956514;28;19969;-62
2024/03/03 07:18:56;;;;;;;;;;;;;;;6.19;51.11;93900.00;4957662;28;19973;-63
2024/03/03 07:21:21;;;;;;;;;;;;;;;6.35;50.70;93903.34;4956589;28;20478;-62
2024/03/03 07:23:46;;;;;;;;;;;;;;;6.16;51.24;93900.41;4954202;28;20239;-63
2024/03/03 07:26:12;;;;;;;;;;;;;;;6.30;51.02;93908.41;4957037;28;19922;-63
2024/03/03 07:28:37;;;;;;;;;;;;;;;6.23;51.06;93900.44;4951887;28;19926;-63
2024/03/03 07:31:02;;;;;;;;;;;;;;;6.23;51.00;93906.53;4958176;28;19995;-63
2024/03/03 07:33:27;;;;;;;;;;;;;;;6.27;51.02;93912.28;4958165;28;19930;-63
2024/03/03 07:35:53;;;;;;;;;;;;;;;6.35;50.96;93908.66;4960708;28;20464;-63
2024/03/03 07:38:18;;;;;;;;;;;;;;;6.35;51.06;93914.75;4970709;28;19954;-63
2024/03/03 07:40:44;;;;;;;;;;;;;;;6.49;50.69;93915.69;4960430;28;19934;-63
2024/03/03 07:43:10;;;;;;;;;;;;;;;6.43;51.22;93913.78;4960264;28;19967;-63
2024/03/03 07:45:35;;;;;;;;;;;;;;;6.37;51.34;93915.38;4959899;28;20418;-63
2024/03/03 07:48:00;;;;;;;;;;;;;;;6.68;50.57;93908.06;4959257;28;19926;-63
2024/03/03 07:50:26;;;;;;;;;;;;;;;6.89;50.48;93909.81;4960788;28;19928;-63
2024/03/03 07:52:51;;;;;;;;;;;;;;;6.91;49.94;93920.19;4959788;28;19969;-63
2024/03/03 07:55:16;;;;;;;;;;;;;;;7.08;49.97;93912.72;4960313;28;19926;-63
2024/03/03 07:57:41;;;;;;;;;;;;;;;7.09;49.66;93918.81;4959794;28;19926;-63
2024/03/03 08:00:07;;;;;;;;;;;;;;;7.50;48.45;93917.09;4959949;28;19930;-63
2024/03/03 08:02:32;;;;;;;;;;;;;;;7.63;48.51;93918.97;4959960;28;19933;-62
2024/03/03 08:04:58;;;;;;;;;;;;;;;7.76;48.50;93918.97;4959521;28;19997;-60
2024/03/03 08:07:24;;;;;;;;;;;;;;;7.79;48.11;93915.97;4960268;28;19961;-61
2024/03/03 08:09:50;;;;;;;;;;;;;;;7.98;48.02;93910.88;4959598;28;19926;-61
2024/03/03 08:12:15;;;;;;;;;;;;;;;8.09;47.91;93912.09;4959508;28;20439;-61
2024/03/03 08:14:40;;;;;;;;;;;;;;;8.06;47.37;93909.84;4959297;28;19918;-61
2024/03/03 08:17:05;;;;;;;;;;;;;;;8.08;47.36;93914.97;4955554;28;19933;-61
2024/03/03 08:19:31;;;;;;;;;;;;;;;8.49;46.59;93916.56;4959523;28;20325;-61
2024/03/03 08:21:56;;;;;;;;;;;;;;;8.44;47.00;93913.72;4959342;28;19929;-61
2024/03/03 08:24:21;;;;;;;;;;;;;;;8.61;46.71;93918.59;4958594;28;19926;-62
2024/03/03 08:26:48;;;;;;;;;;;;;;;8.82;46.13;93917.50;4959503;28;19922;-61
2024/03/03 08:29:13;;;;;;;;;;;;;;;8.93;46.05;93924.00;4955060;28;19926;-62
2024/03/03 08:31:41;;;;;;;;;;;;;;;9.06;44.66;93918.69;4959860;28;19926;-61
2024/03/03 08:34:06;;;;;;;;;;;;;;;9.25;44.48;93920.66;4959569;28;19922;-62
2024/03/03 08:36:31;;;;;;;;;;;;;;;9.49;44.16;93913.81;4959200;28;19926;-61
2024/03/03 08:38:57;;;;;;;;;;;;;;;9.69;43.96;93918.19;4960038;28;20691;-62
2024/03/03 08:41:22;;;;;;;;;;;;;;;9.88;43.39;93921.72;4958895;28;19996;-61
2024/03/03 08:43:47;;;;;;;;;;;;;;;10.18;42.47;93917.66;4959145;28;19935;-61
2024/03/03 08:46:13;;;;;;;;;;;;;;;10.01;42.61;93915.50;4958916;28;20025;-61
2024/03/03 08:48:38;;;;;;;;;;;;;;;10.18;41.39;93922.97;4958778;28;19934;-61
2024/03/03 08:51:07;;;;;;;;;;;;;;;9.92;42.13;93924.75;4959676;28;19926;-61
2024/03/03 08:53:33;;;;;;;;;;;;;;;9.96;41.72;93926.78;4958986;28;19926;-61
2024/03/03 08:55:58;;;;;;;;;;;;;;;9.94;41.85;93931.50;4951721;28;19922;-62
2024/03/03 08:58:24;;;;;;;;;;;;;;;9.82;41.91;93928.72;4959135;28;19957;-60
2024/03/03 09:00:49;;;;;;;;;;;;;;;10.09;41.70;93935.72;4958113;28;19934;-62
2024/03/03 09:03:14;;;;;;;;;;;;;;;10.36;41.04;93940.81;4958910;28;19965;-61
2024/03/03 09:05:40;;;;;;;;;;;;;;;10.65;41.24;93943.03;4958501;28;19940;-62
2024/03/03 09:08:06;;;;;;;;;;;;;;;11.24;39.19;93942.63;4955412;28;19988;-61
2024/03/03 09:10:31;;;;;;;;;;;;;;;11.68;40.02;93942.50;4965734;28;19936;-62
2024/03/03 09:12:57;;;;;;;;;;;;;;;11.80;39.32;93942.53;4958746;28;19918;-62
2024/03/03 09:15:22;;;;;;;;;;;;;;;11.49;37.51;93944.41;4957271;28;19922;-61
2024/03/03 09:17:48;;;;;;;;;;;;;;;11.39;38.70;93951.06;4951665;28;19996;-62
2024/03/03 09:20:13;;;;;;;;;;;;;;;11.79;38.04;93948.91;4957950;28;20654;-61
2024/03/03 09:22:38;;;;;;;;;;;;;;;11.89;37.07;93943.84;4958668;28;20679;-61
2024/03/03 09:25:04;;;;;;;;;;;;;;;11.83;37.36;93947.41;4957760;28;19932;-62
2024/03/03 09:27:29;;;;;;;;;;;;;;;11.90;37.46;93942.00;4958297;28;19925;-61
2024/03/03 09:29:54;;;;;;;;;;;;;;;12.01;37.27;93943.06;4956703;28;20235;-61
2024/03/03 09:32:20;;;;;;;;;;;;;;;11.57;37.92;93937.94;4958437;28;19926;-62
2024/03/03 09:34:45;;;;;;;;;;;;;;;12.12;37.30;93944.97;4958333;28;19922;-61
2024/03/03 09:37:13;;;;;;;;;;;;;;;12.30;36.67;93940.59;4957243;28;20108;-62
2024/03/03 09:39:38;;;;;;;;;;;;;;;12.32;36.83;93941.19;4957796;28;19930;-61
2024/03/03 09:42:04;;;;;;;;;;;;;;;12.68;36.39;93930.50;4957854;28;19937;-62
2024/03/03 09:44:45;;;;;;;;;;;;;;;12.87;35.79;93923.19;4956459;28;19989;-62
2024/03/03 09:47:12;;;;;;;;;;;;;;;12.91;35.50;93932.34;4957193;28;19926;-62
2024/03/03 09:49:43;;;;;;;;;;;;;;;13.12;35.48;93926.69;4962213;28;20336;-62
2024/03/03 09:52:11;;;;;;;;;;;;;;;13.11;35.17;93917.00;4971287;28;19932;-62
2024/03/03 09:54:36;;;;;;;;;;;;;;;13.25;34.79;93920.22;4958215;28;19922;-62
2024/03/03 09:57:01;;;;;;;;;;;;;;;13.29;34.84;93914.19;4970142;28;20048;-62
2024/03/03 09:59:27;;;;;;;;;;;;;;;13.18;34.50;93909.69;4972584;28;20032;-62
2024/03/03 10:01:54;;;;;;;;;;;;;;;13.39;34.71;93905.56;4958181;28;19977;-62
2024/03/03 10:04:19;;;;;;;;;;;;;;;13.31;34.97;93904.09;4957493;28;19932;-62
2024/03/03 10:06:45;;;;;;;;;;;;;;;13.37;34.60;93902.31;4956299;28;19922;-62
2024/03/03 10:09:10;;;;;;;;;;;;;;;13.44;34.59;93908.31;4957275;28;19922;-62
2024/03/03 10:11:36;;;;;;;;;;;;;;;13.51;34.32;93902.03;4957090;28;19977;-62
2024/03/03 10:14:02;;;;;;;;;;;;;;;13.49;34.03;93904.94;4957470;28;19918;-62
2024/03/03 10:16:27;;;;;;;;;;;;;;;13.63;34.23;93916.16;4971795;28;19981;-61
2024/03/03 10:19:01;;;;;;;;;;;;;;;13.70;33.65;93914.16;4971012;28;19968;-62
2024/03/03 10:21:36;;;;;;;;;;;;;;;13.69;34.37;93919.72;4957571;28;19933;-62
2024/03/03 10:24:17;;;;;;;;;;;;;;;13.79;33.76;93909.22;4952382;28;20012;-62
2024/03/03 10:26:43;;;;;;;;;;;;;;;13.33;33.91;93909.19;4953244;28;20040;-62
2024/03/03 10:29:08;;;;;;;;;;;;;;;13.35;33.84;93906.25;4955847;28;20453;-62
2024/03/03 10:31:34;;;;;;;;;;;;;;;14.05;33.60;93908.91;4957056;28;20061;-62
2024/03/03 10:34:00;;;;;;;;;;;;;;;13.77;32.92;93907.84;4957494;28;20839;-61
2024/03/03 10:36:28;;;;;;;;;;;;;;;14.19;32.88;93912.88;4956723;28;19926;-62
2024/03/03 10:38:53;;;;;;;;;;;;;;;14.15;32.66;93906.41;4955904;28;19922;-62
2024/03/03 10:41:18;;;;;;;;;;;;;;;14.49;32.38;93907.44;4956543;28;20554;-62
2024/03/03 10:43:44;;;;;;;;;;;;;;;14.54;31.78;93904.81;4958750;28;19957;-62
2024/03/03 10:46:09;;;;;;;;;;;;;;;14.31;31.77;93902.09;4956796;28;19957;-62
2024/03/03 10:48:34;;;;;;;;;;;;;;;14.33;32.01;93902.66;4957181;28;19993;-61
2024/03/03 10:50:59;;;;;;;;;;;;;;;14.58;31.33;93900.59;4957053;28;19926;-62
2024/03/03 10:53:26;;;;;;;;;;;;;;;14.73;31.81;93897.34;4957228;28;20685;-62
2024/03/03 10:55:51;;;;;;;;;;;;;;;14.69;32.04;93902.38;4956385;28;19930;-61
2024/03/03 10:58:17;;;;;;;;;;;;;;;14.79;31.31;93892.91;4971741;28;19925;-62
2024/03/03 11:00:42;;;;;;;;;;;;;;;15.08;30.53;93893.53;4970721;28;19937;-61
2024/03/03 11:03:09;;;;;;;;;;;;;;;15.46;31.05;93900.94;4956892;28;20359;-62
2024/03/03 11:05:37;;;;;;;;;;;;;;;15.30;30.69;93897.28;4971564;28;20224;-62
2024/03/03 11:08:02;;;;;;;;;;;;;;;15.61;30.34;93901.13;4958022;28;20439;-62
2024/03/03 11:10:28;;;;;;;;;;;;;;;15.85;29.14;93892.00;4960127;28;19922;-61
2024/03/03 11:12:53;;;;;;;;;;;;;;;15.92;29.99;93892.59;4960289;28;19934;-62
2024/03/03 11:15:19;;;;;;;;;;;;;;;16.40;28.75;93891.94;4960313;28;19926;-62
2024/03/03 11:17:46;;;;;;;;;;;;;;;16.17;28.97;93904.63;4960163;28;20387;-62
2024/03/03 11:20:12;;;;;;;;;;;;;;;16.49;27.98;93897.66;4958731;28;19930;-62
2024/03/03 11:22:37;;;;;;;;;;;;;;;16.64;28.39;93896.94;4975113;28;19981;-62
2024/03/03 11:25:03;;;;;;;;;;;;;;;16.82;27.87;93897.59;4974495;28;20025;-62
2024/03/03 11:27:31;;;;;;;;;;;;;;;16.87;28.04;93894.91;4960654;28;19922;-62
2024/03/03 11:29:56;;;;;;;;;;;;;;;17.10;27.11;93901.75;4960045;28;19921;-62
2024/03/03 11:32:22;;;;;;;;;;;;;;;17.17;27.39;93893.50;4959443;28;19989;-63
2024/03/03 11:34:48;;;;;;;;;;;;;;;17.39;27.04;93893.31;4959470;28;20001;-63
2024/03/03 11:37:13;;;;;;;;;;;;;;;17.44;27.46;93895.19;4960156;28;20046;-63
2024/03/03 11:39:54;;;;;;;;;;;;;;;16.85;27.39;93887.13;4959935;28;19933;-63
2024/03/03 11:42:20;;;;;;;;;;;;;;;17.28;26.88;93889.75;4961085;28;20463;-63
2024/03/03 11:44:52;;;;;;;;;;;;;;;17.57;26.58;93877.72;4960049;28;19921;-63
2024/03/03 11:47:18;;;;;;;;;;;;;;;17.72;26.28;93871.59;4959913;28;19926;-63
2024/03/03 11:49:43;;;;;;;;;;;;;;;17.91;26.17;93868.41;4954291;28;19949;-63
2024/03/03 11:52:08;;;;;;;;;;;;;;;18.01;25.35;93867.59;4959751;28;19926;-63
2024/03/03 11:54:37;;;;;;;;;;;;;;;17.90;25.59;93866.78;4959396;28;20301;-63
2024/03/03 11:57:04;;;;;;;;;;;;;;;18.02;25.66;93853.88;4958935;28;20307;-63
2024/03/03 11:59:32;;;;;;;;;;;;;;;18.38;25.57;93863.84;4957601;28;20017;-63
2024/03/03 12:02:00;;;;;;;;;;;;;;;18.35;24.66;93860.91;4960131;28;19962;-63
2024/03/03 12:04:27;;;;;;;;;;;;;;;18.46;24.75;93856.28;4956953;28;19953;-63
2024/03/03 12:06:52;;;;;;;;;;;;;;;18.42;24.14;93858.72;4959604;28;19930;-63
2024/03/03 12:09:19;;;;;;;;;;;;;;;18.52;24.93;93850.63;4959497;28;19988;-63
2024/03/03 12:11:47;;;;;;;;;;;;;;;18.81;24.46;93850.06;4973424;28;19926;-63
2024/03/03 12:14:12;;;;;;;;;;;;;;;18.95;23.78;93850.28;4959630;28;20568;-63
2024/03/03 12:16:37;;;;;;;;;;;;;;;18.95;23.80;93838.69;4959088;28;19934;-63
2024/03/03 12:19:03;;;;;;;;;;;;;;;19.26;23.43;93838.56;4958937;28;20047;-63
2024/03/03 12:21:28;;;;;;;;;;;;;;;19.22;23.39;93845.59;4958688;28;20024;-64
2024/03/03 12:23:53;;;;;;;;;;;;;;;19.48;23.98;93840.13;4955810;28;20391;-63
2024/03/03 12:26:19;;;;;;;;;;;;;;;19.47;23.18;93846.56;4960111;28;19968;-63
2024/03/03 12:28:44;;;;;;;;;;;;;;;19.69;23.29;93846.16;4955279;28;20599;-63
2024/03/03 12:31:09;;;;;;;;;;;;;;;19.89;23.03;93843.63;4958998;28;20253;-64
2024/03/03 12:33:38;;;;;;;;;;;;;;;19.08;24.51;93846.19;4958939;28;19926;-63
2024/03/03 12:36:04;;;;;;;;;;;;;;;19.65;23.66;93847.03;4958926;28;20020;-63
2024/03/03 12:38:29;;;;;;;;;;;;;;;19.75;23.31;93848.84;4973723;28;20032;-63
2024/03/03 12:40:55;;;;;;;;;;;;;;;20.05;22.41;93845.16;4958632;28;19930;-63
2024/03/03 12:43:20;;;;;;;;;;;;;;;20.41;22.39;93846.75;4957304;28;19937;-62
2024/03/03 12:45:46;;;;;;;;;;;;;;;20.70;22.25;93845.16;4959171;28;20179;-62